createdAt,value
2023-05-10T00:03:41.414Z,2.30
2023-05-10T00:08:43.372Z,2.20
2023-05-10T00:13:45.207Z,2.17
2023-05-10T00:18:47.058Z,2.05
2023-05-10T00:23:48.903Z,2.28
2023-05-10T00:28:50.737Z,2.13
2023-05-10T00:33:53.726Z,2.13
2023-05-10T00:38:55.658Z,2.55
2023-05-10T00:43:57.500Z,2.42
2023-05-10T00:48:59.563Z,2.47
2023-05-10T00:54:01.540Z,2.50
2023-05-10T00:59:03.497Z,2.10
2023-05-10T01:04:05.687Z,2.20
2023-05-10T01:09:07.965Z,2.00
2023-05-10T01:14:10.086Z,2.33
2023-05-10T01:19:29.170Z,2.13
2023-05-10T01:24:40.479Z,2.78
2023-05-10T01:30:17.434Z,2.35
2023-05-10T01:35:28.305Z,2.25
2023-05-10T01:40:36.663Z,2.25
2023-05-10T01:46:00.648Z,2.17
2023-05-10T01:51:03.559Z,2.22
2023-05-10T01:56:06.604Z,1.80
2023-05-10T02:01:10.504Z,2.20
2023-05-10T02:06:15.519Z,2.28
2023-05-10T02:11:19.927Z,1.80
2023-05-10T02:16:26.460Z,1.63
2023-05-10T02:21:30.741Z,2.10
2023-05-10T02:26:35.445Z,1.90
2023-05-10T02:31:39.944Z,1.98
2023-05-10T02:36:42.983Z,2.20
2023-05-10T02:41:47.572Z,1.75
2023-05-10T02:46:49.619Z,1.80
2023-05-10T02:52:01.427Z,2.22
2023-05-10T02:57:06.945Z,2.05
2023-05-10T03:02:09.582Z,2.15
2023-05-10T03:07:11.696Z,2.95
2023-05-10T03:12:43.197Z,2.00
2023-05-10T03:17:57.087Z,1.98
2023-05-10T03:23:06.409Z,2.53
2023-05-10T03:28:09.566Z,2.15
2023-05-10T03:33:11.941Z,1.98
2023-05-10T03:38:16.994Z,2.45
2023-05-10T03:43:18.912Z,2.40
2023-05-10T03:48:20.844Z,2.05
2023-05-10T03:53:24.154Z,2.30
2023-05-10T03:58:26.201Z,1.90
2023-05-10T04:03:28.180Z,2.40
2023-05-10T04:08:30.279Z,2.45
2023-05-10T04:13:32.622Z,2.15
2023-05-10T04:18:34.479Z,2.42
2023-05-10T04:23:36.290Z,1.55
2023-05-10T04:28:38.179Z,1.73
2023-05-10T04:33:40.047Z,2.47
2023-05-10T04:38:41.916Z,2.00
2023-05-10T04:43:43.733Z,2.00
2023-05-10T04:48:45.602Z,1.98
2023-05-10T04:54:01.403Z,1.85
2023-05-10T04:59:06.855Z,2.00
2023-05-10T05:04:08.725Z,2.42
2023-05-10T05:09:11.277Z,1.77
2023-05-10T05:14:13.078Z,2.17
2023-05-10T05:19:14.930Z,1.60
2023-05-10T05:24:16.752Z,2.45
2023-05-10T05:29:18.633Z,2.17
2023-05-10T05:34:21.605Z,2.30
2023-05-10T05:39:23.583Z,2.20
2023-05-10T05:44:25.439Z,1.75
2023-05-10T05:49:27.719Z,1.92
2023-05-10T05:54:30.014Z,1.75
2023-05-10T05:59:31.988Z,2.10
2023-05-10T06:04:34.017Z,1.90
2023-05-10T06:09:36.005Z,2.05
2023-05-10T06:14:37.861Z,2.17
2023-05-10T06:19:39.743Z,2.10
2023-05-10T06:24:41.676Z,1.98
2023-05-10T06:29:43.485Z,2.13
2023-05-10T06:34:45.755Z,2.05
2023-05-10T06:39:47.607Z,1.83
2023-05-10T06:44:49.405Z,2.22
2023-05-10T06:49:51.918Z,2.53
2023-05-10T06:54:54.024Z,1.95
2023-05-10T06:59:57.270Z,2.20
2023-05-10T07:05:01.659Z,1.88
2023-05-10T07:10:05.408Z,2.20
2023-05-10T07:15:08.353Z,2.10
2023-05-10T07:20:10.541Z,2.15
2023-05-10T07:25:13.278Z,2.13
2023-05-10T07:30:16.145Z,2.40
2023-05-10T07:35:18.350Z,1.90
2023-05-10T07:40:20.458Z,2.30
2023-05-10T07:45:22.691Z,2.08
2023-05-10T07:50:24.556Z,2.17
2023-05-10T07:55:26.724Z,2.30
2023-05-10T08:00:28.620Z,2.10
2023-05-10T08:05:30.481Z,1.92
2023-05-10T08:10:32.497Z,2.15
2023-05-10T08:15:35.568Z,2.35
2023-05-10T08:20:37.448Z,2.60
2023-05-10T08:25:39.341Z,2.38
2023-05-10T08:30:41.206Z,2.00
2023-05-10T08:35:43.050Z,2.55
2023-05-10T08:40:45.994Z,2.63
2023-05-10T08:45:50.738Z,2.50
2023-05-10T08:50:58.601Z,2.17
2023-05-10T08:56:02.449Z,2.47
2023-05-10T09:01:05.236Z,2.70
2023-05-10T09:06:08.034Z,2.22
2023-05-10T09:11:10.778Z,2.55
2023-05-10T09:16:21.090Z,2.78
2023-05-10T09:21:23.359Z,2.50
2023-05-10T09:26:25.422Z,2.40
2023-05-10T09:31:47.854Z,2.47
2023-05-10T09:36:57.426Z,2.65
2023-05-10T09:42:02.017Z,3.00
2023-05-10T09:47:04.769Z,2.33
2023-05-10T09:52:08.582Z,2.67
2023-05-10T09:57:21.921Z,2.40
2023-05-10T10:02:30.428Z,2.53
2023-05-10T10:07:33.016Z,2.80
2023-05-10T10:12:34.945Z,2.42
2023-05-10T10:17:39.414Z,2.65
2023-05-10T10:22:41.336Z,2.90
2023-05-10T10:27:52.207Z,2.53
2023-05-10T10:33:24.366Z,2.60
2023-05-10T10:39:00.314Z,2.55
2023-05-10T10:44:24.798Z,2.30
2023-05-10T10:49:27.266Z,2.65
2023-05-10T10:54:29.680Z,2.78
2023-05-10T10:59:31.484Z,3.10
2023-05-10T11:04:44.504Z,2.97
2023-05-10T11:09:48.356Z,2.67
2023-05-10T11:14:53.294Z,2.72
2023-05-10T11:20:11.546Z,3.38
2023-05-10T11:25:14.045Z,2.83
2023-05-10T11:30:16.372Z,3.35
2023-05-10T11:35:18.402Z,3.20
2023-05-10T11:40:22.319Z,2.88
2023-05-10T11:45:25.596Z,2.85
2023-05-10T11:50:28.104Z,2.95
2023-05-10T11:55:31.485Z,2.58
2023-05-10T12:00:33.831Z,2.58
2023-05-10T12:05:36.836Z,2.97
2023-05-10T12:10:38.627Z,2.80
2023-05-10T12:15:40.620Z,2.30
2023-05-10T12:20:42.603Z,2.78
2023-05-10T12:25:44.451Z,3.00
2023-05-10T12:30:46.563Z,2.38
2023-05-10T12:35:53.470Z,2.55
2023-05-10T12:40:55.472Z,3.03
2023-05-10T12:45:57.853Z,2.72
2023-05-10T12:50:59.691Z,3.42
2023-05-10T12:56:01.572Z,2.40
2023-05-10T13:01:04.166Z,3.15
2023-05-10T13:06:07.371Z,2.97
2023-05-10T13:11:09.297Z,2.53
2023-05-10T13:16:11.121Z,3.22
2023-05-10T13:21:13.153Z,2.83
2023-05-10T13:26:15.021Z,2.42
2023-05-10T13:31:17.002Z,2.78
2023-05-10T13:36:18.922Z,2.30
2023-05-10T13:41:21.303Z,2.78
2023-05-10T13:46:24.203Z,2.25
2023-05-10T13:51:26.546Z,2.30
2023-05-10T13:56:28.625Z,2.70
2023-05-10T14:01:30.595Z,2.75
2023-05-10T14:06:32.631Z,2.78
2023-05-10T14:11:34.627Z,2.55
2023-05-10T14:16:36.849Z,2.58
2023-05-10T14:21:39.202Z,2.80
2023-05-10T14:26:41.070Z,2.50
2023-05-10T14:31:43.038Z,2.45
2023-05-10T14:36:44.982Z,2.60
2023-05-10T14:41:48.187Z,2.45
2023-05-10T14:46:50.830Z,2.15
2023-05-10T14:51:53.208Z,2.20
2023-05-10T14:56:55.012Z,2.53
2023-05-10T15:01:56.872Z,2.70
2023-05-10T15:07:00.541Z,2.80
2023-05-10T15:12:02.429Z,3.08
2023-05-10T15:17:04.425Z,2.40
2023-05-10T15:22:06.736Z,2.20
2023-05-10T15:27:08.733Z,2.50
2023-05-10T15:32:10.609Z,2.17
2023-05-10T15:37:12.458Z,3.22
2023-05-10T15:42:14.260Z,3.50
2023-05-10T15:47:16.485Z,3.15
2023-05-10T15:52:19.329Z,3.35
2023-05-10T15:57:21.163Z,3.53
2023-05-10T16:02:23.505Z,4.05
2023-05-10T16:07:25.479Z,4.75
2023-05-10T16:12:27.296Z,3.95
2023-05-10T16:17:29.217Z,3.67
2023-05-10T16:22:31.149Z,3.55
2023-05-10T16:27:33.668Z,3.13
2023-05-10T16:32:35.943Z,3.13
2023-05-10T16:37:37.962Z,3.40
2023-05-10T16:42:39.790Z,3.40
2023-05-10T16:47:41.846Z,3.60
2023-05-10T16:52:44.177Z,3.60
2023-05-10T16:57:46.163Z,3.40
2023-05-10T17:02:48.734Z,4.05
2023-05-10T17:07:50.701Z,3.53
2023-05-10T17:12:53.756Z,2.80
2023-05-10T17:17:56.181Z,2.97
2023-05-10T17:22:58.232Z,3.40
2023-05-10T17:28:00.136Z,3.47
2023-05-10T17:33:02.326Z,3.35
2023-05-10T17:38:04.249Z,3.63
2023-05-10T17:43:06.083Z,3.28
2023-05-10T17:48:08.103Z,3.47
2023-05-10T17:53:10.284Z,5.25
2023-05-10T17:58:12.359Z,4.60
2023-05-10T18:03:14.268Z,3.83
2023-05-10T18:08:16.868Z,3.03
2023-05-10T18:13:19.089Z,3.60
2023-05-10T18:18:20.944Z,2.95
2023-05-10T18:23:23.684Z,2.67
2023-05-10T18:28:25.814Z,2.97
2023-05-10T18:33:27.734Z,2.47
2023-05-10T18:38:29.657Z,2.63
2023-05-10T18:43:31.585Z,2.50
2023-05-10T18:48:33.461Z,2.80
2023-05-10T18:53:35.404Z,2.42
2023-05-10T18:58:37.404Z,2.45
2023-05-10T19:03:39.252Z,2.40
2023-05-10T19:08:41.088Z,2.67
2023-05-10T19:13:43.013Z,2.38
2023-05-10T19:18:46.786Z,2.20
2023-05-10T19:23:49.313Z,1.98
2023-05-10T19:28:52.310Z,2.38
2023-05-10T19:33:54.289Z,1.98
2023-05-10T19:38:56.157Z,2.35
2023-05-10T19:43:58.168Z,2.10
2023-05-10T19:48:59.995Z,2.17
2023-05-10T19:54:02.186Z,2.00
2023-05-10T19:59:04.185Z,1.77
2023-05-10T20:04:06.192Z,2.13
2023-05-10T20:09:08.974Z,1.80
2023-05-10T20:14:11.127Z,2.20
2023-05-10T20:19:14.089Z,2.60
2023-05-10T20:24:16.081Z,2.33
2023-05-10T20:29:17.911Z,2.38
2023-05-10T20:34:19.759Z,2.42
2023-05-10T20:39:21.781Z,2.70
2023-05-10T20:44:23.575Z,2.50
2023-05-10T20:49:25.405Z,2.58
2023-05-10T20:54:27.331Z,2.28
2023-05-10T20:59:29.381Z,2.13
2023-05-10T21:04:32.033Z,2.03
2023-05-10T21:09:35.296Z,2.65
2023-05-10T21:14:37.354Z,2.40
2023-05-10T21:19:39.156Z,2.83
2023-05-10T21:24:41.005Z,2.50
2023-05-10T21:29:42.833Z,3.35
2023-05-10T21:34:44.748Z,2.53
2023-05-10T21:39:46.560Z,2.70
2023-05-10T21:44:48.434Z,3.00
2023-05-10T21:49:50.659Z,3.22
2023-05-10T21:54:52.496Z,2.60
2023-05-10T21:59:54.303Z,2.88
2023-05-10T22:04:56.366Z,3.20
2023-05-10T22:09:58.793Z,2.97
2023-05-10T22:15:10.223Z,3.53
2023-05-10T22:20:12.944Z,3.40
2023-05-10T22:25:14.918Z,3.30
2023-05-10T22:30:17.208Z,3.50
2023-05-10T22:35:19.573Z,3.38
2023-05-10T22:40:21.651Z,3.60
2023-05-10T22:45:23.766Z,3.30
2023-05-10T22:50:26.042Z,3.65
2023-05-10T22:55:27.868Z,3.30
2023-05-10T23:00:29.741Z,3.45
2023-05-10T23:05:31.570Z,3.75
2023-05-10T23:10:33.604Z,3.63
2023-05-10T23:15:40.197Z,3.40
2023-05-10T23:20:42.990Z,3.63
2023-05-10T23:25:44.852Z,3.35
2023-05-10T23:30:46.659Z,3.45
2023-05-10T23:35:48.538Z,3.40
2023-05-10T23:40:50.978Z,3.53
2023-05-10T23:45:57.151Z,3.20
2023-05-10T23:50:59.100Z,3.70
2023-05-10T23:56:00.983Z,3.58
